Seattle, WA

1:55 AM PST on January 31, 2015 (GMT -0800)
Herrera, Inc. | Change Station
CLOSE
Current Station
Personal Weather Station
Location: Seattle, WA
Elevation: 121 ft
Nearby Weather Stations

Elev 121 ft 47.62 °N, 122.34 °W | Updated 2 seconds ago

Fog
Fog
39.9 °F
Feels Like 40 °F
N
0.0
Wind Variable Wind from NW
Gusts 0.0 mph

Today
High -- | Low -- °F
--% Chance of Precip.
Yesterday
High -- | Low -- °F
Precip. -- in
7:37 AM 5:08 PM
Waxing Gibbous, 88% visible
Pressure 30.26 in
Visibility 0.2 miles
Clouds
Windchill 40 °F
Dew Point 39 °F
Humidity 97%
Rainfall 0.00 in
Snow Depth Not available.
UV Not available.
Pollen 5.70 out of 12
Air Quality Not available.
Flu Activity Not available.
METAR KBFI 310853Z 00000KT M1/4SM FG VV002 06/04 A3026 RMK AO2 SLP246 T00560039 50002

More Conditions Fewer Conditions

Pressure 30.26 in
Visibility 0.2 miles
Clouds
Windchill 40 °F
Dew Point 39 °F
Humidity 97%
Rainfall 0.00 in
Snow Depth Not available.
UV Not available.
Pollen 5.70 out of 12
Air Quality Not available.
Flu Activity Not available.
METAR KBFI 310853Z 00000KT M1/4SM FG VV002 06/04 A3026 RMK AO2 SLP246 T00560039 50002

More Conditions Fewer Conditions

10-Day Weather Forecast

Almanac

Astronomy

Jan. 31, 2015 Rise Set
Actual Time
Civil Twilight
Nautical Twilight
Astronomical Twilight
Moon
Length of Visible Light
Length of Day
Tomorrow will be .
, % of the Moon is Illuminated

Today's Extremes

State Highs State Lows

Community

WunderPhotos

Upload Photos

1,792,021 photos uploaded!

WunderBlogs® & News

Nearby

Air Quality

  Air Quality AQ Index Pollutant
Not available.

Snow Depth

Station Depth Elevation

Earthquake Activity

City Distance Mag. Time & Date
Minimum magnitude displayed is 2.5.

Coastal Water Temperatures

Place Temperature

Nearby Weather Stations